createdAt,value
2023-04-18T00:01:40.287Z,102133.60
2023-04-18T00:04:09.777Z,102131.00
2023-04-18T00:06:37.876Z,102133.40
2023-04-18T00:09:05.927Z,102135.20
2023-04-18T00:11:35.076Z,102138.00
2023-04-18T00:14:03.475Z,102138.80
2023-04-18T00:16:32.658Z,102135.80
2023-04-18T00:19:02.332Z,102144.20
2023-04-18T00:21:30.304Z,102142.60
2023-04-18T00:23:58.241Z,102138.80
2023-04-18T00:26:27.686Z,102146.20
2023-04-18T00:28:55.599Z,102147.80
2023-04-18T00:31:23.428Z,102149.80
2023-04-18T00:33:51.350Z,102150.40
2023-04-18T00:36:19.092Z,102150.40
2023-04-18T00:38:46.825Z,102140.40
2023-04-18T00:41:15.442Z,102142.00
2023-04-18T00:43:43.175Z,102140.80
2023-04-18T00:46:11.177Z,102143.80
2023-04-18T00:48:39.640Z,102143.00
2023-04-18T00:51:09.298Z,102142.80
2023-04-18T00:53:37.600Z,102139.20
2023-04-18T00:56:06.288Z,102134.20
2023-04-18T00:58:34.316Z,102140.20
2023-04-18T01:01:02.145Z,102145.00
2023-04-18T01:03:30.276Z,102136.80
2023-04-18T01:05:59.185Z,102142.40
2023-04-18T01:08:28.099Z,102139.00
2023-04-18T01:10:55.876Z,102142.40
2023-04-18T01:13:23.779Z,102148.80
2023-04-18T01:15:52.170Z,102149.20
2023-04-18T01:18:20.867Z,102147.00
2023-04-18T01:20:51.519Z,102147.20
2023-04-18T01:23:20.450Z,102147.00
2023-04-18T01:25:51.919Z,102149.00
2023-04-18T01:28:24.176Z,102149.60
2023-04-18T01:30:52.257Z,102148.20
2023-04-18T01:33:20.090Z,102146.00
2023-04-18T01:35:47.920Z,102143.60
2023-04-18T01:38:15.756Z,102140.40
2023-04-18T01:40:43.898Z,102148.40
2023-04-18T01:43:11.745Z,102146.60
2023-04-18T01:45:39.585Z,102146.40
2023-04-18T01:48:07.500Z,102148.80
2023-04-18T01:50:35.310Z,102146.40
2023-04-18T01:53:03.126Z,102141.40
2023-04-18T01:55:30.833Z,102139.80
2023-04-18T01:57:58.689Z,102143.60
2023-04-18T02:00:26.437Z,102139.60
2023-04-18T02:02:54.658Z,102139.20
2023-04-18T02:05:22.705Z,102134.80
2023-04-18T02:07:50.867Z,102133.20
2023-04-18T02:10:20.383Z,102129.00
2023-04-18T02:12:48.265Z,102125.40
2023-04-18T02:15:16.076Z,102122.60
2023-04-18T02:17:44.061Z,102121.20
2023-04-18T02:20:13.434Z,102118.60
2023-04-18T02:22:41.274Z,102114.20
2023-04-18T02:25:09.472Z,102116.00
2023-04-18T02:27:37.262Z,102116.00
2023-04-18T02:30:06.655Z,102109.80
2023-04-18T02:32:34.469Z,102113.20
2023-04-18T02:35:02.287Z,102111.60
2023-04-18T02:37:30.000Z,102112.60
2023-04-18T02:39:57.837Z,102113.60
2023-04-18T02:42:25.569Z,102110.20
2023-04-18T02:44:53.594Z,102114.00
2023-04-18T02:47:21.846Z,102112.80
2023-04-18T02:49:49.708Z,102109.20
2023-04-18T02:52:17.486Z,102124.40
2023-04-18T02:54:45.272Z,102122.60
2023-04-18T02:57:13.110Z,102122.20
2023-04-18T02:59:40.872Z,102120.00
2023-04-18T03:02:08.656Z,102121.80
2023-04-18T03:04:36.543Z,102119.60
2023-04-18T03:07:04.305Z,102125.60
2023-04-18T03:09:32.080Z,102123.60
2023-04-18T03:11:59.889Z,102124.20
2023-04-18T03:14:27.781Z,102132.20
2023-04-18T03:16:55.761Z,102123.60
2023-04-18T03:19:23.624Z,102126.00
2023-04-18T03:21:51.365Z,102123.60
2023-04-18T03:24:19.089Z,102125.20
2023-04-18T03:26:47.095Z,102128.20
2023-04-18T03:29:14.862Z,102125.20
2023-04-18T03:31:42.816Z,102130.40
2023-04-18T03:34:11.090Z,102134.60
2023-04-18T03:36:38.996Z,102133.80
2023-04-18T03:39:06.890Z,102132.00
2023-04-18T03:41:34.619Z,102136.60
2023-04-18T03:44:02.368Z,102134.40
2023-04-18T03:46:30.369Z,102135.60
2023-04-18T03:48:58.155Z,102139.00
2023-04-18T03:51:26.255Z,102137.00
2023-04-18T03:53:53.994Z,102134.00
2023-04-18T03:56:21.891Z,102135.60
2023-04-18T03:58:49.773Z,102136.40
2023-04-18T04:01:17.590Z,102141.20
2023-04-18T04:03:45.506Z,102145.00
2023-04-18T04:06:13.643Z,102140.20
2023-04-18T04:08:41.846Z,102139.40
2023-04-18T04:11:09.557Z,102145.20
2023-04-18T04:13:37.396Z,102146.80
2023-04-18T04:16:07.264Z,102150.40
2023-04-18T04:18:35.066Z,102153.40
2023-04-18T04:21:03.906Z,102149.80
2023-04-18T04:23:31.753Z,102159.00
2023-04-18T04:26:03.268Z,102161.80
2023-04-18T04:28:31.700Z,102157.40
2023-04-18T04:30:59.531Z,102161.00
2023-04-18T04:33:29.719Z,102155.60
2023-04-18T04:35:57.635Z,102154.00
2023-04-18T04:38:25.553Z,102154.40
2023-04-18T04:40:53.357Z,102154.40
2023-04-18T04:43:21.716Z,102156.00
2023-04-18T04:45:51.762Z,102154.40
2023-04-18T04:48:22.320Z,102156.80
2023-04-18T04:50:59.461Z,102157.40
2023-04-18T04:53:32.578Z,102155.20
2023-04-18T04:56:00.401Z,102153.60
2023-04-18T04:58:28.227Z,102155.60
2023-04-18T05:00:56.679Z,102159.60
2023-04-18T05:03:24.840Z,102162.60
2023-04-18T05:05:53.878Z,102162.60
2023-04-18T05:08:21.579Z,102165.80
2023-04-18T05:10:50.297Z,102159.60
2023-04-18T05:13:18.118Z,102167.00
2023-04-18T05:15:46.087Z,102168.20
2023-04-18T05:18:14.513Z,102160.60
2023-04-18T05:20:42.277Z,102169.00
2023-04-18T05:23:10.097Z,102164.80
2023-04-18T05:25:37.918Z,102161.60
2023-04-18T05:28:05.764Z,102164.40
2023-04-18T05:30:33.597Z,102164.80
2023-04-18T05:33:01.395Z,102165.80
2023-04-18T05:35:29.315Z,102163.40
2023-04-18T05:37:58.852Z,102162.80
2023-04-18T05:40:27.576Z,102161.20
2023-04-18T05:42:55.417Z,102161.20
2023-04-18T05:45:23.224Z,102160.60
2023-04-18T05:47:51.265Z,102156.60
2023-04-18T05:50:19.128Z,102153.40
2023-04-18T05:52:46.920Z,102160.00
2023-04-18T05:55:14.657Z,102156.60
2023-04-18T05:57:42.429Z,102162.20
2023-04-18T06:00:11.993Z,102164.80
2023-04-18T06:02:39.917Z,102166.80
2023-04-18T06:05:08.765Z,102165.20
2023-04-18T06:07:36.772Z,102171.00
2023-04-18T06:10:09.277Z,102166.60
2023-04-18T06:12:37.288Z,102168.80
2023-04-18T06:15:06.600Z,102162.60
2023-04-18T06:17:35.136Z,102161.00
2023-04-18T06:20:06.302Z,102163.20
2023-04-18T06:22:34.213Z,102161.80
2023-04-18T06:25:02.116Z,102164.40
2023-04-18T06:27:31.864Z,102160.80
2023-04-18T06:30:00.237Z,102166.60
2023-04-18T06:32:28.386Z,102167.40
2023-04-18T06:34:56.277Z,102166.20
2023-04-18T06:37:24.550Z,102164.80
2023-04-18T06:39:52.353Z,102161.00
2023-04-18T06:42:22.200Z,102162.40
2023-04-18T06:44:50.829Z,102172.60
2023-04-18T06:47:18.883Z,102168.80
2023-04-18T06:49:46.835Z,102171.60
2023-04-18T06:52:14.626Z,102169.40
2023-04-18T06:54:42.420Z,102179.40
2023-04-18T06:57:10.730Z,102176.40
2023-04-18T06:59:38.642Z,102178.20
2023-04-18T07:02:06.428Z,102184.40
2023-04-18T07:04:34.837Z,102185.40
2023-04-18T07:07:05.239Z,102187.20
2023-04-18T07:09:33.131Z,102185.80
2023-04-18T07:12:01.085Z,102176.60
2023-04-18T07:14:28.965Z,102186.00
2023-04-18T07:16:57.781Z,102181.60
2023-04-18T07:19:25.710Z,102186.60
2023-04-18T07:21:54.978Z,102190.80
2023-04-18T07:24:23.808Z,102190.20
2023-04-18T07:26:54.814Z,102183.40
2023-04-18T07:29:23.006Z,102189.60
2023-04-18T07:31:51.049Z,102186.00
2023-04-18T07:34:24.267Z,102190.60
2023-04-18T07:36:52.062Z,102192.40
2023-04-18T07:39:36.109Z,102192.20
2023-04-18T07:42:04.977Z,102196.20
2023-04-18T07:44:36.328Z,102192.20
2023-04-18T07:47:11.918Z,102188.40
2023-04-18T07:49:39.811Z,102188.80
2023-04-18T07:52:07.743Z,102203.00
2023-04-18T07:54:35.527Z,102210.40
2023-04-18T07:57:03.362Z,102202.20
2023-04-18T07:59:32.358Z,102200.40
2023-04-18T08:02:00.231Z,102195.80
2023-04-18T08:04:30.411Z,102200.80
2023-04-18T08:06:58.661Z,102198.40
2023-04-18T08:09:26.501Z,102200.40
2023-04-18T08:11:56.223Z,102203.00
2023-04-18T08:14:24.046Z,102204.00
2023-04-18T08:16:52.226Z,102203.60
2023-04-18T08:19:24.005Z,102205.20
2023-04-18T08:21:52.254Z,102202.80
2023-04-18T08:24:20.225Z,102219.60
2023-04-18T08:26:49.683Z,102208.20
2023-04-18T08:29:18.074Z,102209.40
2023-04-18T08:31:46.070Z,102193.40
2023-04-18T08:34:13.892Z,102196.80
2023-04-18T08:36:41.662Z,102202.20
2023-04-18T08:39:09.687Z,102198.20
2023-04-18T08:41:38.209Z,102205.60
2023-04-18T08:44:06.813Z,102189.20
2023-04-18T08:46:36.103Z,102202.60
2023-04-18T08:49:05.151Z,102202.40
2023-04-18T08:51:33.420Z,102207.60
2023-04-18T08:54:04.439Z,102199.80
2023-04-18T08:56:32.595Z,102207.80
2023-04-18T08:59:00.559Z,102203.00
2023-04-18T09:01:58.919Z,102216.60
2023-04-18T09:04:45.157Z,102204.00
2023-04-18T09:07:17.184Z,102204.20
2023-04-18T09:09:52.990Z,102212.80
2023-04-18T09:12:26.723Z,102203.80
2023-04-18T09:15:16.712Z,102202.40
2023-04-18T09:17:51.103Z,102219.00
2023-04-18T09:20:42.362Z,102218.00
2023-04-18T09:23:14.904Z,102220.00
2023-04-18T09:25:49.347Z,102216.20
2023-04-18T09:28:30.422Z,102216.80
2023-04-18T09:31:15.663Z,102216.80
2023-04-18T09:33:56.965Z,102207.40
2023-04-18T09:36:28.096Z,102200.00
2023-04-18T09:38:57.259Z,102206.60
2023-04-18T09:41:30.535Z,102196.40
2023-04-18T09:44:14.655Z,102211.80
2023-04-18T09:46:47.129Z,102213.40
2023-04-18T09:49:17.816Z,102201.60
2023-04-18T09:51:47.013Z,102208.00
2023-04-18T09:54:16.659Z,102201.00
2023-04-18T09:56:47.128Z,102194.40
2023-04-18T09:59:29.065Z,102200.80
2023-04-18T10:01:59.752Z,102198.80
2023-04-18T10:04:29.018Z,102200.40
2023-04-18T10:06:57.147Z,102198.80
2023-04-18T10:09:25.143Z,102191.40
2023-04-18T10:11:54.931Z,102202.80
2023-04-18T10:14:23.617Z,102203.00
2023-04-18T10:16:51.913Z,102203.00
2023-04-18T10:19:28.690Z,102203.00
2023-04-18T10:22:00.483Z,102209.80
2023-04-18T10:24:53.924Z,102207.40
2023-04-18T10:27:49.866Z,102209.00
2023-04-18T10:30:18.983Z,102200.20
2023-04-18T10:32:46.874Z,102199.60
2023-04-18T10:35:14.889Z,102195.60
2023-04-18T10:37:58.882Z,102202.00
2023-04-18T10:40:34.860Z,102210.80
2023-04-18T10:43:02.732Z,102207.00
2023-04-18T10:45:36.450Z,102197.80
2023-04-18T10:48:27.790Z,102200.20
2023-04-18T10:51:19.951Z,102196.20
2023-04-18T10:53:57.716Z,102195.00
2023-04-18T10:56:28.144Z,102195.00
2023-04-18T10:59:02.116Z,102196.60
2023-04-18T11:01:33.279Z,102203.00
2023-04-18T11:04:01.611Z,102196.80
2023-04-18T11:06:31.318Z,102189.00
2023-04-18T11:09:13.819Z,102193.20
2023-04-18T11:11:43.667Z,102183.00
2023-04-18T11:14:11.707Z,102188.20
2023-04-18T11:16:40.256Z,102182.80
2023-04-18T11:19:23.758Z,102183.20
2023-04-18T11:21:51.855Z,102174.60
2023-04-18T11:24:24.647Z,102177.60
2023-04-18T11:26:55.872Z,102176.00
2023-04-18T11:29:24.076Z,102179.60
2023-04-18T11:31:55.993Z,102177.20
2023-04-18T11:34:36.076Z,102171.20
2023-04-18T11:37:08.170Z,102173.00
2023-04-18T11:39:43.380Z,102164.80
2023-04-18T11:42:11.540Z,102163.60
2023-04-18T11:44:44.065Z,102169.00
2023-04-18T11:47:34.085Z,102174.20
2023-04-18T11:50:07.872Z,102168.60
2023-04-18T11:52:37.262Z,102174.00
2023-04-18T11:55:27.403Z,102174.00
2023-04-18T11:57:58.719Z,102166.00
2023-04-18T12:00:36.032Z,102170.40
2023-04-18T12:03:11.875Z,102170.00
2023-04-18T12:05:45.481Z,102159.00
2023-04-18T12:08:22.376Z,102167.80
2023-04-18T12:10:52.536Z,102161.00
2023-04-18T12:13:29.311Z,102158.60
2023-04-18T12:15:57.329Z,102159.80
2023-04-18T12:18:25.444Z,102156.60
2023-04-18T12:20:56.914Z,102160.60
2023-04-18T12:23:33.912Z,102152.00
2023-04-18T12:26:04.744Z,102156.60
2023-04-18T12:28:34.442Z,102150.20
2023-04-18T12:31:05.544Z,102145.00
2023-04-18T12:33:35.929Z,102141.80
2023-04-18T12:36:08.704Z,102145.20
2023-04-18T12:38:36.929Z,102140.00
2023-04-18T12:41:05.595Z,102144.40
2023-04-18T12:43:33.491Z,102144.00
2023-04-18T12:46:01.736Z,102130.40
2023-04-18T12:48:29.645Z,102151.20
2023-04-18T12:50:57.411Z,102140.80
2023-04-18T12:53:25.808Z,102139.60
2023-04-18T12:55:53.657Z,102149.40
2023-04-18T12:58:21.710Z,102142.00
2023-04-18T13:00:49.513Z,102137.40
2023-04-18T13:03:17.471Z,102136.20
2023-04-18T13:05:46.328Z,102134.00
2023-04-18T13:08:17.672Z,102139.40
2023-04-18T13:10:47.776Z,102135.80
2023-04-18T13:13:15.662Z,102133.60
2023-04-18T13:15:43.646Z,102133.60
2023-04-18T13:18:11.461Z,102145.40
2023-04-18T13:20:39.305Z,102137.40
2023-04-18T13:23:07.312Z,102136.00
2023-04-18T13:25:35.155Z,102129.20
2023-04-18T13:28:02.995Z,102130.00
2023-04-18T13:30:31.993Z,102131.40
2023-04-18T13:32:59.883Z,102131.60
2023-04-18T13:35:27.692Z,102128.40
2023-04-18T13:37:56.178Z,102137.80
2023-04-18T13:40:24.386Z,102138.00
2023-04-18T13:42:52.150Z,102139.80
2023-04-18T13:45:20.697Z,102147.60
2023-04-18T13:47:48.615Z,102145.00
2023-04-18T13:50:16.460Z,102140.80
2023-04-18T13:52:44.273Z,102143.20
2023-04-18T13:55:12.828Z,102145.00
2023-04-18T13:57:41.526Z,102146.00
2023-04-18T14:00:11.256Z,102140.20
2023-04-18T14:02:39.249Z,102139.00
2023-04-18T14:05:08.146Z,102142.60
2023-04-18T14:07:36.630Z,102138.20
2023-04-18T14:10:05.190Z,102142.80
2023-04-18T14:12:33.055Z,102145.40
2023-04-18T14:15:00.961Z,102143.80
2023-04-18T14:17:28.862Z,102137.60
2023-04-18T14:19:56.735Z,102136.80
2023-04-18T14:22:24.579Z,102133.20
2023-04-18T14:24:54.639Z,102144.00
2023-04-18T14:27:22.587Z,102139.80
2023-04-18T14:29:50.962Z,102148.00
2023-04-18T14:32:18.967Z,102139.80
2023-04-18T14:34:46.817Z,102142.40
2023-04-18T14:37:15.686Z,102138.80
2023-04-18T14:39:44.369Z,102134.20
2023-04-18T14:42:12.270Z,102128.60
2023-04-18T14:44:40.370Z,102121.60
2023-04-18T14:47:08.207Z,102127.60
2023-04-18T14:49:35.980Z,102123.60
2023-04-18T14:52:04.165Z,102119.20
2023-04-18T14:54:32.753Z,102118.20
2023-04-18T14:57:01.595Z,102119.20
2023-04-18T14:59:29.517Z,102111.80
2023-04-18T15:01:57.340Z,102115.40
2023-04-18T15:04:25.503Z,102110.60
2023-04-18T15:06:53.466Z,102109.20
2023-04-18T15:09:21.386Z,102112.80
2023-04-18T15:11:49.186Z,102106.00
2023-04-18T15:14:17.252Z,102112.40
2023-04-18T15:16:45.312Z,102105.60
2023-04-18T15:19:13.129Z,102104.60
2023-04-18T15:21:40.938Z,102105.80
2023-04-18T15:24:09.023Z,102103.20
2023-04-18T15:26:37.137Z,102100.20
2023-04-18T15:29:05.140Z,102104.80
2023-04-18T15:31:33.378Z,102105.40
2023-04-18T15:34:08.314Z,102098.40
2023-04-18T15:36:36.417Z,102097.00
2023-04-18T15:39:05.946Z,102102.00
2023-04-18T15:41:37.305Z,102090.40
2023-04-18T15:44:07.219Z,102088.60
2023-04-18T15:46:36.742Z,102087.20
2023-04-18T15:49:05.273Z,102088.00
2023-04-18T15:51:33.045Z,102080.00
2023-04-18T15:54:00.995Z,102090.60
2023-04-18T15:56:29.377Z,102089.80
2023-04-18T15:59:00.313Z,102085.20
2023-04-18T16:01:28.406Z,102088.80
2023-04-18T16:03:56.386Z,102087.60
2023-04-18T16:06:24.364Z,102081.60
2023-04-18T16:08:52.244Z,102087.80
2023-04-18T16:11:21.686Z,102087.20
2023-04-18T16:13:49.767Z,102083.20
2023-04-18T16:16:17.632Z,102088.40
2023-04-18T16:18:45.829Z,102090.80
2023-04-18T16:21:15.323Z,102080.80
2023-04-18T16:23:43.418Z,102093.40
2023-04-18T16:26:11.320Z,102086.20
2023-04-18T16:28:39.405Z,102089.20
2023-04-18T16:31:07.213Z,102103.00
2023-04-18T16:33:35.190Z,102102.60
2023-04-18T16:36:03.356Z,102098.80
2023-04-18T16:38:31.378Z,102091.60
2023-04-18T16:41:01.730Z,102095.20
2023-04-18T16:43:36.571Z,102090.60
2023-04-18T16:46:04.787Z,102092.80
2023-04-18T16:48:32.772Z,102086.60
2023-04-18T16:51:00.745Z,102095.20
2023-04-18T16:53:28.564Z,102094.60
2023-04-18T16:55:56.759Z,102090.60
2023-04-18T16:58:24.788Z,102097.60
2023-04-18T17:00:52.990Z,102094.40
2023-04-18T17:03:24.154Z,102094.80
2023-04-18T17:06:00.482Z,102095.00
2023-04-18T17:08:29.332Z,102097.80
2023-04-18T17:10:57.474Z,102104.40
2023-04-18T17:13:27.277Z,102098.40
2023-04-18T17:15:55.186Z,102103.80
2023-04-18T17:18:23.445Z,102111.60
2023-04-18T17:20:51.427Z,102110.60
2023-04-18T17:23:19.426Z,102111.60
2023-04-18T17:25:47.733Z,102113.00
2023-04-18T17:28:15.728Z,102113.80
2023-04-18T17:30:43.995Z,102121.40
2023-04-18T17:33:11.960Z,102118.40
2023-04-18T17:35:42.647Z,102117.80
2023-04-18T17:38:10.978Z,102124.00
2023-04-18T17:40:39.781Z,102124.80
2023-04-18T17:43:07.807Z,102124.40
2023-04-18T17:45:35.808Z,102127.00
2023-04-18T17:48:04.300Z,102121.40
2023-04-18T17:50:32.625Z,102122.80
2023-04-18T17:53:01.053Z,102134.00
2023-04-18T17:55:28.883Z,102131.40
2023-04-18T17:57:57.575Z,102134.20
2023-04-18T18:00:25.798Z,102133.60
2023-04-18T18:02:54.076Z,102127.20
2023-04-18T18:05:22.108Z,102133.00
2023-04-18T18:07:51.732Z,102129.40
2023-04-18T18:10:20.195Z,102128.20
2023-04-18T18:12:48.010Z,102126.60
2023-04-18T18:15:16.009Z,102119.60
2023-04-18T18:17:43.890Z,102116.40
2023-04-18T18:20:12.008Z,102112.80
2023-04-18T18:22:39.863Z,102122.60
2023-04-18T18:25:08.696Z,102113.60
2023-04-18T18:27:37.698Z,102111.60
2023-04-18T18:30:07.050Z,102120.00
2023-04-18T18:32:35.235Z,102116.60
2023-04-18T18:35:04.342Z,102118.00
2023-04-18T18:37:33.114Z,102114.00
2023-04-18T18:40:05.047Z,102121.20
2023-04-18T18:42:33.103Z,102113.60
2023-04-18T18:45:01.811Z,102117.20
2023-04-18T18:47:30.825Z,102116.80
2023-04-18T18:49:58.713Z,102112.80
2023-04-18T18:52:29.905Z,102117.00
2023-04-18T18:54:57.936Z,102114.00
2023-04-18T18:57:26.274Z,102115.40
2023-04-18T18:59:55.850Z,102108.60
2023-04-18T19:02:24.372Z,102115.40
2023-04-18T19:04:52.668Z,102110.20
2023-04-18T19:07:23.896Z,102116.60
2023-04-18T19:09:53.501Z,102115.40
2023-04-18T19:12:21.773Z,102115.40
2023-04-18T19:14:50.264Z,102110.20
2023-04-18T19:17:20.542Z,102108.60
2023-04-18T19:19:48.379Z,102102.60
2023-04-18T19:22:16.991Z,102104.00
2023-04-18T19:24:45.091Z,102104.40
2023-04-18T19:27:13.337Z,102102.00
2023-04-18T19:29:41.547Z,102099.80
2023-04-18T19:32:10.201Z,102103.20
2023-04-18T19:34:38.570Z,102106.80
2023-04-18T19:37:06.744Z,102099.80
2023-04-18T19:39:34.764Z,102098.40
2023-04-18T19:42:04.038Z,102096.60
2023-04-18T19:44:32.512Z,102087.40
2023-04-18T19:47:00.484Z,102086.40
2023-04-18T19:49:28.365Z,102086.00
2023-04-18T19:51:56.236Z,102084.40
2023-04-18T19:54:24.089Z,102082.40
2023-04-18T19:56:53.957Z,102079.00
2023-04-18T19:59:24.978Z,102071.40
2023-04-18T20:01:52.853Z,102071.00
2023-04-18T20:04:22.271Z,102072.60
2023-04-18T20:06:50.382Z,102070.40
2023-04-18T20:09:18.237Z,102061.00
2023-04-18T20:11:48.284Z,102058.20
2023-04-18T20:14:16.143Z,102056.00
2023-04-18T20:16:45.930Z,102052.20
2023-04-18T20:19:14.875Z,102054.20
2023-04-18T20:21:43.030Z,102054.00
2023-04-18T20:24:10.857Z,102051.00
2023-04-18T20:26:38.684Z,102051.80
2023-04-18T20:29:09.216Z,102040.80
2023-04-18T20:31:41.873Z,102035.20
2023-04-18T20:34:10.048Z,102027.60
2023-04-18T20:36:41.827Z,102028.40
2023-04-18T20:39:17.639Z,102026.40
2023-04-18T20:41:56.380Z,102019.60
2023-04-18T20:44:31.277Z,102010.80
2023-04-18T20:46:59.110Z,102014.00
2023-04-18T20:49:27.956Z,102004.00
2023-04-18T20:51:55.864Z,102000.00
2023-04-18T20:54:23.938Z,101995.80
2023-04-18T20:56:51.799Z,101994.80
2023-04-18T20:59:19.506Z,101991.40
2023-04-18T21:01:48.812Z,101981.80
2023-04-18T21:04:16.776Z,101970.60
2023-04-18T21:06:44.949Z,101971.80
2023-04-18T21:09:12.796Z,101966.00
2023-04-18T21:11:40.780Z,101960.00
2023-04-18T21:14:08.618Z,101962.40
2023-04-18T21:16:39.446Z,101958.80
2023-04-18T21:19:07.525Z,101962.40
2023-04-18T21:21:35.656Z,101959.00
2023-04-18T21:24:04.258Z,101949.80
2023-04-18T21:26:32.000Z,101944.20
2023-04-18T21:29:04.164Z,101937.40
2023-04-18T21:31:33.853Z,101931.80
2023-04-18T21:34:05.048Z,101928.20
2023-04-18T21:36:33.189Z,101927.80
2023-04-18T21:39:01.359Z,101923.20
2023-04-18T21:41:29.340Z,101921.40
2023-04-18T21:43:57.161Z,101928.40
2023-04-18T21:46:25.057Z,101926.40
2023-04-18T21:48:52.844Z,101917.00
2023-04-18T21:51:20.731Z,101906.60
2023-04-18T21:53:48.469Z,101905.40
2023-04-18T21:56:16.999Z,101905.80
2023-04-18T21:58:44.822Z,101897.80
2023-04-18T22:01:12.644Z,101899.60
2023-04-18T22:03:40.599Z,101904.60
2023-04-18T22:06:08.654Z,101898.00
2023-04-18T22:08:36.789Z,101896.40
2023-04-18T22:11:05.084Z,101887.20
2023-04-18T22:13:33.268Z,101886.20
2023-04-18T22:16:04.932Z,101884.00
2023-04-18T22:18:34.091Z,101882.00
2023-04-18T22:21:03.473Z,101877.60
2023-04-18T22:23:31.464Z,101873.20
2023-04-18T22:25:59.315Z,101871.80
2023-04-18T22:28:30.885Z,101865.20
2023-04-18T22:30:58.680Z,101866.60
2023-04-18T22:33:26.704Z,101863.40
2023-04-18T22:35:55.758Z,101855.60
2023-04-18T22:38:25.308Z,101857.80
2023-04-18T22:40:53.190Z,101853.20
2023-04-18T22:43:23.695Z,101841.60
2023-04-18T22:45:51.737Z,101836.60
2023-04-18T22:48:19.720Z,101833.20
2023-04-18T22:50:47.565Z,101830.80
2023-04-18T22:53:16.286Z,101826.60
2023-04-18T22:55:45.831Z,101827.20
2023-04-18T22:58:14.455Z,101821.80
2023-04-18T23:00:42.544Z,101821.20
2023-04-18T23:03:10.666Z,101821.20
2023-04-18T23:05:38.670Z,101815.00
2023-04-18T23:08:07.079Z,101806.00
2023-04-18T23:10:35.144Z,101803.20
2023-04-18T23:13:02.900Z,101793.20
2023-04-18T23:15:30.767Z,101798.00
2023-04-18T23:17:58.606Z,101792.40
2023-04-18T23:20:26.429Z,101790.60
2023-04-18T23:22:55.555Z,101787.80
2023-04-18T23:25:23.327Z,101781.20
2023-04-18T23:27:51.189Z,101781.40
2023-04-18T23:30:19.023Z,101779.60
2023-04-18T23:32:50.200Z,101772.80
2023-04-18T23:35:18.113Z,101774.60
2023-04-18T23:37:46.221Z,101773.60
2023-04-18T23:40:13.956Z,101779.00
2023-04-18T23:42:42.170Z,101775.80
2023-04-18T23:45:10.963Z,101773.20
2023-04-18T23:47:38.768Z,101781.20
2023-04-18T23:50:07.895Z,101769.20
2023-04-18T23:52:35.728Z,101778.00
2023-04-18T23:55:03.736Z,101767.60
2023-04-18T23:57:31.557Z,101784.20
2023-04-18T23:59:59.234Z,101782.80
